Central City, Kentucky
Current Conditions -  °F | °C
As of 2:15 PM on Sunday 23 Nov 2014 (Local Time) from K2I0 Reporting Station
Light Rain Light Rain  
Wind Chill: 59°   Ceiling: 1000
Heat Index: 59°   Visibility: 10mi
Dew Point: 59°   Wind: 6mph
Humidity: 100%   Direction: 130°SE
Pressure: 29.49"   Gusts: NA
Location:  37.29°N, 87.12°W
Report Text: K2I0 232015Z AUTO 13005KT 10SM -RA OVC010 15/15 A2949 RMK AO2 P0001 T01500150
Loading
Personal Weather Stations






























Interactive Weather Map New forecast layout! Learn more

10-Day Weather Forecast

Advertisements
Track Severe Weather on mobile